Auburn Hills, Michigan
Current Conditions -  °F | °C
As of 5:14 PM on Monday 20 Oct 2014 (Local Time) from KVLL Reporting Station
Overcast Overcast  
Wind Chill: 57°   Ceiling: 2700
Heat Index: 57°   Visibility: 10mi
Dew Point: 47°   Wind: 3mph
Humidity: 68%   Direction: 240°WSW
Pressure: 29.81"   Gusts: NA
Location:  42.67°N, 83.22°W
Report Text: KVLL 202114Z AUTO 24003KT 10SM OVC027 14/08 A2981 RMK AO2 T01400082
Loading
Personal Weather Stations






























Interactive Weather Map
Tropical Storm Tracking
New forecast layout! Learn more

10-Day Weather Forecast

Advertisements
Track Severe Weather on mobile